sensor_id;sensor_type;location;lat;lon;timestamp;temperature;humidity
52575;DHT22;38468;48.114;-1.684;2023-05-14T00:00:18;12.50;80.20
52575;DHT22;38468;48.114;-1.684;2023-05-14T00:02:18;12.50;80.20
52575;DHT22;38468;48.114;-1.684;2023-05-14T00:04:19;12.50;80.20
52575;DHT22;38468;48.114;-1.684;2023-05-14T00:06:20;12.50;80.20
52575;DHT22;38468;48.114;-1.684;2023-05-14T00:08:21;12.40;80.30
52575;DHT22;38468;48.114;-1.684;2023-05-14T00:10:21;12.50;80.20
52575;DHT22;38468;48.114;-1.684;2023-05-14T00:12:22;12.40;80.30
52575;DHT22;38468;48.114;-1.684;2023-05-14T00:14:23;12.50;80.40
52575;DHT22;38468;48.114;-1.684;2023-05-14T00:16:23;12.50;80.30
52575;DHT22;38468;48.114;-1.684;2023-05-14T00:18:24;12.50;80.30
52575;DHT22;38468;48.114;-1.684;2023-05-14T00:20:25;12.50;80.20
52575;DHT22;38468;48.114;-1.684;2023-05-14T00:22:25;12.40;80.30
52575;DHT22;38468;48.114;-1.684;2023-05-14T00:24:26;12.40;80.50
52575;DHT22;38468;48.114;-1.684;2023-05-14T00:26:27;12.40;80.40
52575;DHT22;38468;48.114;-1.684;2023-05-14T00:28:27;12.40;80.40
52575;DHT22;38468;48.114;-1.684;2023-05-14T00:30:28;12.40;80.50
52575;DHT22;38468;48.114;-1.684;2023-05-14T00:32:29;12.40;80.60
52575;DHT22;38468;48.114;-1.684;2023-05-14T00:34:29;12.40;80.60
52575;DHT22;38468;48.114;-1.684;2023-05-14T00:36:30;12.30;80.60
52575;DHT22;38468;48.114;-1.684;2023-05-14T00:38:31;12.40;80.60
52575;DHT22;38468;48.114;-1.684;2023-05-14T00:40:31;12.40;80.70
52575;DHT22;38468;48.114;-1.684;2023-05-14T00:42:32;12.40;80.80
52575;DHT22;38468;48.114;-1.684;2023-05-14T00:44:34;12.40;80.70
52575;DHT22;38468;48.114;-1.684;2023-05-14T00:46:35;12.30;80.90
52575;DHT22;38468;48.114;-1.684;2023-05-14T00:48:35;12.40;80.90
52575;DHT22;38468;48.114;-1.684;2023-05-14T00:50:36;12.30;80.90
52575;DHT22;38468;48.114;-1.684;2023-05-14T00:52:37;12.30;80.90
52575;DHT22;38468;48.114;-1.684;2023-05-14T00:54:38;12.30;81.00
52575;DHT22;38468;48.114;-1.684;2023-05-14T00:56:39;12.30;81.00
52575;DHT22;38468;48.114;-1.684;2023-05-14T00:58:40;12.30;81.10
52575;DHT22;38468;48.114;-1.684;2023-05-14T01:00:41;12.40;81.10
52575;DHT22;38468;48.114;-1.684;2023-05-14T01:02:41;12.40;81.10
52575;DHT22;38468;48.114;-1.684;2023-05-14T01:04:42;12.40;81.00
52575;DHT22;38468;48.114;-1.684;2023-05-14T01:11:05;12.40;81.00
52575;DHT22;38468;48.114;-1.684;2023-05-14T01:13:12;12.40;81.10
52575;DHT22;38468;48.114;-1.684;2023-05-14T01:15:23;12.40;81.10
52575;DHT22;38468;48.114;-1.684;2023-05-14T01:17:27;12.40;81.00
52575;DHT22;38468;48.114;-1.684;2023-05-14T01:19:42;12.40;81.00
52575;DHT22;38468;48.114;-1.684;2023-05-14T01:21:43;12.40;81.10
52575;DHT22;38468;48.114;-1.684;2023-05-14T01:23:43;12.40;81.10
52575;DHT22;38468;48.114;-1.684;2023-05-14T01:25:44;12.50;81.10
52575;DHT22;38468;48.114;-1.684;2023-05-14T01:32:08;12.40;81.20
52575;DHT22;38468;48.114;-1.684;2023-05-14T01:34:10;12.40;81.30
52575;DHT22;38468;48.114;-1.684;2023-05-14T01:36:11;12.40;81.30
52575;DHT22;38468;48.114;-1.684;2023-05-14T01:38:13;12.40;81.40
52575;DHT22;38468;48.114;-1.684;2023-05-14T01:40:15;12.40;81.40
52575;DHT22;38468;48.114;-1.684;2023-05-14T01:42:16;12.40;81.40
52575;DHT22;38468;48.114;-1.684;2023-05-14T01:44:17;12.40;81.40
52575;DHT22;38468;48.114;-1.684;2023-05-14T01:46:19;12.50;81.40
52575;DHT22;38468;48.114;-1.684;2023-05-14T01:48:19;12.40;81.50
52575;DHT22;38468;48.114;-1.684;2023-05-14T01:50:20;12.50;81.50
52575;DHT22;38468;48.114;-1.684;2023-05-14T01:52:21;12.50;81.50
52575;DHT22;38468;48.114;-1.684;2023-05-14T01:54:22;12.40;81.40
52575;DHT22;38468;48.114;-1.684;2023-05-14T01:56:22;12.50;81.50
52575;DHT22;38468;48.114;-1.684;2023-05-14T01:58:23;12.50;81.50
52575;DHT22;38468;48.114;-1.684;2023-05-14T02:00:24;12.50;81.50
52575;DHT22;38468;48.114;-1.684;2023-05-14T02:02:27;12.50;81.60
52575;DHT22;38468;48.114;-1.684;2023-05-14T02:04:28;12.50;81.60
52575;DHT22;38468;48.114;-1.684;2023-05-14T02:06:29;12.50;81.60
52575;DHT22;38468;48.114;-1.684;2023-05-14T02:08:30;12.50;81.60
52575;DHT22;38468;48.114;-1.684;2023-05-14T02:10:31;12.50;81.60
52575;DHT22;38468;48.114;-1.684;2023-05-14T02:12:32;12.60;81.50
52575;DHT22;38468;48.114;-1.684;2023-05-14T02:14:33;12.50;81.50
52575;DHT22;38468;48.114;-1.684;2023-05-14T02:16:33;12.60;81.60
52575;DHT22;38468;48.114;-1.684;2023-05-14T02:18:34;12.60;81.60
52575;DHT22;38468;48.114;-1.684;2023-05-14T02:20:34;12.70;81.60
52575;DHT22;38468;48.114;-1.684;2023-05-14T02:22:35;12.60;81.60
52575;DHT22;38468;48.114;-1.684;2023-05-14T02:24:36;12.70;81.60
52575;DHT22;38468;48.114;-1.684;2023-05-14T02:26:37;12.70;81.60
52575;DHT22;38468;48.114;-1.684;2023-05-14T02:28:37;12.70;81.60
52575;DHT22;38468;48.114;-1.684;2023-05-14T02:30:38;12.70;81.60
52575;DHT22;38468;48.114;-1.684;2023-05-14T02:32:39;12.80;81.60
52575;DHT22;38468;48.114;-1.684;2023-05-14T02:34:40;12.80;81.70
52575;DHT22;38468;48.114;-1.684;2023-05-14T02:36:40;12.80;81.60
52575;DHT22;38468;48.114;-1.684;2023-05-14T02:38:41;12.80;81.60
52575;DHT22;38468;48.114;-1.684;2023-05-14T02:40:42;12.80;81.50
52575;DHT22;38468;48.114;-1.684;2023-05-14T02:42:42;12.80;81.50
52575;DHT22;38468;48.114;-1.684;2023-05-14T02:44:43;12.80;81.40
52575;DHT22;38468;48.114;-1.684;2023-05-14T02:46:44;12.80;81.40
52575;DHT22;38468;48.114;-1.684;2023-05-14T02:48:44;12.80;81.30
52575;DHT22;38468;48.114;-1.684;2023-05-14T02:50:45;12.80;81.20
52575;DHT22;38468;48.114;-1.684;2023-05-14T02:52:46;12.80;80.90
52575;DHT22;38468;48.114;-1.684;2023-05-14T02:54:46;12.80;80.80
52575;DHT22;38468;48.114;-1.684;2023-05-14T02:56:47;12.70;80.80
52575;DHT22;38468;48.114;-1.684;2023-05-14T02:58:48;12.70;80.90
52575;DHT22;38468;48.114;-1.684;2023-05-14T03:00:48;12.70;80.80
52575;DHT22;38468;48.114;-1.684;2023-05-14T03:02:49;12.70;80.80
52575;DHT22;38468;48.114;-1.684;2023-05-14T03:04:50;12.70;80.60
52575;DHT22;38468;48.114;-1.684;2023-05-14T03:06:50;12.70;80.70
52575;DHT22;38468;48.114;-1.684;2023-05-14T03:08:51;12.70;80.70
52575;DHT22;38468;48.114;-1.684;2023-05-14T03:10:52;12.70;80.70
52575;DHT22;38468;48.114;-1.684;2023-05-14T03:12:52;12.70;80.70
52575;DHT22;38468;48.114;-1.684;2023-05-14T03:14:53;12.70;80.70
52575;DHT22;38468;48.114;-1.684;2023-05-14T03:16:54;12.70;80.80
52575;DHT22;38468;48.114;-1.684;2023-05-14T03:18:54;12.70;80.80
52575;DHT22;38468;48.114;-1.684;2023-05-14T03:20:55;12.70;80.80
52575;DHT22;38468;48.114;-1.684;2023-05-14T03:22:56;12.70;80.70
52575;DHT22;38468;48.114;-1.684;2023-05-14T03:24:57;12.70;80.70
52575;DHT22;38468;48.114;-1.684;2023-05-14T03:26:57;12.70;80.80
52575;DHT22;38468;48.114;-1.684;2023-05-14T03:28:58;12.70;80.90
52575;DHT22;38468;48.114;-1.684;2023-05-14T03:30:59;12.70;80.90
52575;DHT22;38468;48.114;-1.684;2023-05-14T03:32:59;12.70;80.90
52575;DHT22;38468;48.114;-1.684;2023-05-14T03:35:00;12.70;80.90
52575;DHT22;38468;48.114;-1.684;2023-05-14T03:37:00;12.70;80.90
52575;DHT22;38468;48.114;-1.684;2023-05-14T03:39:01;12.70;80.90
52575;DHT22;38468;48.114;-1.684;2023-05-14T03:41:02;12.70;80.90
52575;DHT22;38468;48.114;-1.684;2023-05-14T03:43:03;12.70;81.00
52575;DHT22;38468;48.114;-1.684;2023-05-14T03:45:04;12.70;81.00
52575;DHT22;38468;48.114;-1.684;2023-05-14T03:47:05;12.70;81.10
52575;DHT22;38468;48.114;-1.684;2023-05-14T03:49:06;12.70;81.10
52575;DHT22;38468;48.114;-1.684;2023-05-14T03:51:07;12.70;81.00
52575;DHT22;38468;48.114;-1.684;2023-05-14T03:53:08;12.70;81.00
52575;DHT22;38468;48.114;-1.684;2023-05-14T03:55:09;12.70;81.10
52575;DHT22;38468;48.114;-1.684;2023-05-14T03:57:09;12.70;81.10
52575;DHT22;38468;48.114;-1.684;2023-05-14T03:59:10;12.70;81.10
52575;DHT22;38468;48.114;-1.684;2023-05-14T04:01:10;12.80;81.10
52575;DHT22;38468;48.114;-1.684;2023-05-14T04:03:11;12.80;81.10
52575;DHT22;38468;48.114;-1.684;2023-05-14T04:05:12;12.70;81.10
52575;DHT22;38468;48.114;-1.684;2023-05-14T04:07:12;12.70;81.20
52575;DHT22;38468;48.114;-1.684;2023-05-14T04:09:13;12.70;81.20
52575;DHT22;38468;48.114;-1.684;2023-05-14T04:11:14;12.70;81.30
52575;DHT22;38468;48.114;-1.684;2023-05-14T04:13:14;12.70;81.40
52575;DHT22;38468;48.114;-1.684;2023-05-14T04:15:15;12.70;81.40
52575;DHT22;38468;48.114;-1.684;2023-05-14T04:17:15;12.70;81.50
52575;DHT22;38468;48.114;-1.684;2023-05-14T04:19:16;12.70;81.50
52575;DHT22;38468;48.114;-1.684;2023-05-14T04:21:17;12.70;81.60
52575;DHT22;38468;48.114;-1.684;2023-05-14T04:23:17;12.70;81.50
52575;DHT22;38468;48.114;-1.684;2023-05-14T04:25:18;12.70;81.60
52575;DHT22;38468;48.114;-1.684;2023-05-14T04:27:19;12.70;81.60
52575;DHT22;38468;48.114;-1.684;2023-05-14T04:29:20;12.70;81.60
52575;DHT22;38468;48.114;-1.684;2023-05-14T04:31:21;12.70;81.60
52575;DHT22;38468;48.114;-1.684;2023-05-14T04:33:22;12.70;81.70
52575;DHT22;38468;48.114;-1.684;2023-05-14T04:35:23;12.70;81.70
52575;DHT22;38468;48.114;-1.684;2023-05-14T04:37:24;12.60;81.70
52575;DHT22;38468;48.114;-1.684;2023-05-14T04:39:25;12.60;81.80
52575;DHT22;38468;48.114;-1.684;2023-05-14T04:41:26;12.70;81.80
52575;DHT22;38468;48.114;-1.684;2023-05-14T04:43:26;12.70;81.80
52575;DHT22;38468;48.114;-1.684;2023-05-14T04:45:33;12.60;81.90
52575;DHT22;38468;48.114;-1.684;2023-05-14T04:47:33;12.70;81.90
52575;DHT22;38468;48.114;-1.684;2023-05-14T04:49:34;12.70;81.90
52575;DHT22;38468;48.114;-1.684;2023-05-14T04:51:35;12.70;81.90
52575;DHT22;38468;48.114;-1.684;2023-05-14T04:53:35;12.70;81.90
52575;DHT22;38468;48.114;-1.684;2023-05-14T04:55:36;12.70;81.80
52575;DHT22;38468;48.114;-1.684;2023-05-14T04:57:37;12.70;81.80
52575;DHT22;38468;48.114;-1.684;2023-05-14T04:59:37;12.70;81.80
52575;DHT22;38468;48.114;-1.684;2023-05-14T05:01:38;12.70;81.90
52575;DHT22;38468;48.114;-1.684;2023-05-14T05:03:38;12.70;81.90
52575;DHT22;38468;48.114;-1.684;2023-05-14T05:05:39;12.80;81.80
52575;DHT22;38468;48.114;-1.684;2023-05-14T05:07:40;12.80;81.70
52575;DHT22;38468;48.114;-1.684;2023-05-14T05:09:41;12.70;81.70
52575;DHT22;38468;48.114;-1.684;2023-05-14T05:11:42;12.70;81.70
52575;DHT22;38468;48.114;-1.684;2023-05-14T05:13:43;12.70;81.70
52575;DHT22;38468;48.114;-1.684;2023-05-14T05:15:43;12.80;81.80
52575;DHT22;38468;48.114;-1.684;2023-05-14T05:17:44;12.80;81.90
52575;DHT22;38468;48.114;-1.684;2023-05-14T05:19:45;12.80;81.80
52575;DHT22;38468;48.114;-1.684;2023-05-14T05:21:45;12.70;81.70
52575;DHT22;38468;48.114;-1.684;2023-05-14T05:23:46;12.70;81.80
52575;DHT22;38468;48.114;-1.684;2023-05-14T05:25:47;12.80;81.90
52575;DHT22;38468;48.114;-1.684;2023-05-14T05:27:48;12.80;81.80
52575;DHT22;38468;48.114;-1.684;2023-05-14T05:29:48;12.80;81.80
52575;DHT22;38468;48.114;-1.684;2023-05-14T05:31:49;12.80;81.80
52575;DHT22;38468;48.114;-1.684;2023-05-14T05:33:50;12.80;81.80
52575;DHT22;38468;48.114;-1.684;2023-05-14T05:35:50;12.80;81.80
52575;DHT22;38468;48.114;-1.684;2023-05-14T05:37:51;12.80;81.80
52575;DHT22;38468;48.114;-1.684;2023-05-14T05:39:52;12.80;81.80
52575;DHT22;38468;48.114;-1.684;2023-05-14T05:41:53;12.80;81.90
52575;DHT22;38468;48.114;-1.684;2023-05-14T05:43:54;12.90;81.90
52575;DHT22;38468;48.114;-1.684;2023-05-14T05:45:55;12.90;81.80
52575;DHT22;38468;48.114;-1.684;2023-05-14T05:47:55;12.80;81.80
52575;DHT22;38468;48.114;-1.684;2023-05-14T05:49:56;12.80;81.80
52575;DHT22;38468;48.114;-1.684;2023-05-14T05:51:57;12.80;81.90
52575;DHT22;38468;48.114;-1.684;2023-05-14T05:53:57;12.80;81.90
52575;DHT22;38468;48.114;-1.684;2023-05-14T05:55:58;12.80;81.90
52575;DHT22;38468;48.114;-1.684;2023-05-14T05:57:58;12.80;81.90
52575;DHT22;38468;48.114;-1.684;2023-05-14T05:59:59;12.90;81.90
52575;DHT22;38468;48.114;-1.684;2023-05-14T06:02:01;12.80;82.00
52575;DHT22;38468;48.114;-1.684;2023-05-14T06:04:02;12.90;82.00
52575;DHT22;38468;48.114;-1.684;2023-05-14T06:06:05;12.90;82.00
52575;DHT22;38468;48.114;-1.684;2023-05-14T06:08:05;12.90;82.00
52575;DHT22;38468;48.114;-1.684;2023-05-14T06:10:06;12.90;82.00
52575;DHT22;38468;48.114;-1.684;2023-05-14T06:12:07;12.90;82.00
52575;DHT22;38468;48.114;-1.684;2023-05-14T06:14:08;13.00;82.00
52575;DHT22;38468;48.114;-1.684;2023-05-14T06:16:09;13.00;82.00
52575;DHT22;38468;48.114;-1.684;2023-05-14T06:18:09;13.00;81.90
52575;DHT22;38468;48.114;-1.684;2023-05-14T06:20:11;13.00;81.80
52575;DHT22;38468;48.114;-1.684;2023-05-14T06:22:12;13.00;81.80
52575;DHT22;38468;48.114;-1.684;2023-05-14T06:24:14;13.00;81.70
52575;DHT22;38468;48.114;-1.684;2023-05-14T06:26:15;13.00;81.70
52575;DHT22;38468;48.114;-1.684;2023-05-14T06:28:16;13.00;81.70
52575;DHT22;38468;48.114;-1.684;2023-05-14T06:30:17;13.10;81.70
52575;DHT22;38468;48.114;-1.684;2023-05-14T06:32:18;13.10;81.70
52575;DHT22;38468;48.114;-1.684;2023-05-14T06:34:18;13.20;81.70
52575;DHT22;38468;48.114;-1.684;2023-05-14T06:36:19;13.20;81.50
52575;DHT22;38468;48.114;-1.684;2023-05-14T06:38:20;13.20;81.40
52575;DHT22;38468;48.114;-1.684;2023-05-14T06:40:20;13.30;81.40
52575;DHT22;38468;48.114;-1.684;2023-05-14T06:42:21;13.30;81.30
52575;DHT22;38468;48.114;-1.684;2023-05-14T06:44:22;13.30;81.30
52575;DHT22;38468;48.114;-1.684;2023-05-14T06:46:22;13.40;81.20
52575;DHT22;38468;48.114;-1.684;2023-05-14T06:48:23;13.40;81.20
52575;DHT22;38468;48.114;-1.684;2023-05-14T06:50:24;13.40;81.20
52575;DHT22;38468;48.114;-1.684;2023-05-14T06:52:25;13.40;80.90
52575;DHT22;38468;48.114;-1.684;2023-05-14T06:54:25;13.30;80.90
52575;DHT22;38468;48.114;-1.684;2023-05-14T06:56:26;13.40;80.90
52575;DHT22;38468;48.114;-1.684;2023-05-14T06:58:26;13.40;80.90
52575;DHT22;38468;48.114;-1.684;2023-05-14T07:00:27;13.40;80.80
52575;DHT22;38468;48.114;-1.684;2023-05-14T07:02:28;13.50;80.90
52575;DHT22;38468;48.114;-1.684;2023-05-14T07:04:29;13.50;80.80
52575;DHT22;38468;48.114;-1.684;2023-05-14T07:06:29;13.40;80.70
52575;DHT22;38468;48.114;-1.684;2023-05-14T07:08:30;13.50;80.80
52575;DHT22;38468;48.114;-1.684;2023-05-14T07:10:31;13.50;80.70
52575;DHT22;38468;48.114;-1.684;2023-05-14T07:12:32;13.50;80.60
52575;DHT22;38468;48.114;-1.684;2023-05-14T07:14:32;13.50;80.40
52575;DHT22;38468;48.114;-1.684;2023-05-14T07:16:33;13.50;80.40
52575;DHT22;38468;48.114;-1.684;2023-05-14T07:18:34;13.50;80.30
52575;DHT22;38468;48.114;-1.684;2023-05-14T07:20:35;13.60;80.20
52575;DHT22;38468;48.114;-1.684;2023-05-14T07:22:35;13.60;80.10
52575;DHT22;38468;48.114;-1.684;2023-05-14T07:24:36;13.70;80.10
52575;DHT22;38468;48.114;-1.684;2023-05-14T07:26:36;13.70;80.20
52575;DHT22;38468;48.114;-1.684;2023-05-14T07:28:38;13.70;80.10
52575;DHT22;38468;48.114;-1.684;2023-05-14T07:30:39;13.80;80.30
52575;DHT22;38468;48.114;-1.684;2023-05-14T07:32:39;13.90;80.20
52575;DHT22;38468;48.114;-1.684;2023-05-14T07:34:40;13.90;79.90
52575;DHT22;38468;48.114;-1.684;2023-05-14T07:36:41;14.00;80.00
52575;DHT22;38468;48.114;-1.684;2023-05-14T07:38:41;14.00;79.90
52575;DHT22;38468;48.114;-1.684;2023-05-14T07:40:45;14.10;79.90
52575;DHT22;38468;48.114;-1.684;2023-05-14T07:42:46;14.50;79.80
52575;DHT22;38468;48.114;-1.684;2023-05-14T07:44:47;14.80;79.20
52575;DHT22;38468;48.114;-1.684;2023-05-14T07:46:48;15.00;77.70
52575;DHT22;38468;48.114;-1.684;2023-05-14T07:48:49;15.00;77.00
52575;DHT22;38468;48.114;-1.684;2023-05-14T07:50:49;15.10;76.80
52575;DHT22;38468;48.114;-1.684;2023-05-14T07:52:51;15.10;76.70
52575;DHT22;38468;48.114;-1.684;2023-05-14T07:54:52;15.00;76.90
52575;DHT22;38468;48.114;-1.684;2023-05-14T07:56:53;15.00;76.90
52575;DHT22;38468;48.114;-1.684;2023-05-14T07:58:53;14.90;76.90
52575;DHT22;38468;48.114;-1.684;2023-05-14T08:00:54;14.90;77.20
52575;DHT22;38468;48.114;-1.684;2023-05-14T08:02:56;14.90;77.20
52575;DHT22;38468;48.114;-1.684;2023-05-14T08:04:56;14.80;77.30
52575;DHT22;38468;48.114;-1.684;2023-05-14T08:06:57;14.70;77.20
52575;DHT22;38468;48.114;-1.684;2023-05-14T08:08:58;14.70;77.30
52575;DHT22;38468;48.114;-1.684;2023-05-14T08:10:59;14.70;77.40
52575;DHT22;38468;48.114;-1.684;2023-05-14T08:13:00;14.70;77.70
52575;DHT22;38468;48.114;-1.684;2023-05-14T08:15:01;14.60;77.70
52575;DHT22;38468;48.114;-1.684;2023-05-14T08:17:02;14.70;77.60
52575;DHT22;38468;48.114;-1.684;2023-05-14T08:19:03;14.70;77.60
52575;DHT22;38468;48.114;-1.684;2023-05-14T08:21:04;14.70;77.50
52575;DHT22;38468;48.114;-1.684;2023-05-14T08:23:05;14.80;77.40
52575;DHT22;38468;48.114;-1.684;2023-05-14T08:25:07;14.80;77.00
52575;DHT22;38468;48.114;-1.684;2023-05-14T08:27:08;14.70;76.90
52575;DHT22;38468;48.114;-1.684;2023-05-14T08:29:09;14.70;77.00
52575;DHT22;38468;48.114;-1.684;2023-05-14T08:31:09;14.70;76.80
52575;DHT22;38468;48.114;-1.684;2023-05-14T08:33:10;14.80;76.90
52575;DHT22;38468;48.114;-1.684;2023-05-14T08:35:11;14.90;76.90
52575;DHT22;38468;48.114;-1.684;2023-05-14T08:37:12;14.90;76.30
52575;DHT22;38468;48.114;-1.684;2023-05-14T08:39:13;14.90;76.30
52575;DHT22;38468;48.114;-1.684;2023-05-14T08:41:14;15.00;76.20
52575;DHT22;38468;48.114;-1.684;2023-05-14T08:43:18;15.10;76.30
52575;DHT22;38468;48.114;-1.684;2023-05-14T08:45:23;15.20;76.30
52575;DHT22;38468;48.114;-1.684;2023-05-14T08:47:26;15.70;76.40
52575;DHT22;38468;48.114;-1.684;2023-05-14T08:49:40;16.30;75.30
52575;DHT22;38468;48.114;-1.684;2023-05-14T08:51:43;16.70;74.20
52575;DHT22;38468;48.114;-1.684;2023-05-14T08:53:43;16.90;72.50
52575;DHT22;38468;48.114;-1.684;2023-05-14T08:55:45;17.00;72.30
52575;DHT22;38468;48.114;-1.684;2023-05-14T08:57:48;16.80;71.90
52575;DHT22;38468;48.114;-1.684;2023-05-14T08:59:48;16.60;71.70
52575;DHT22;38468;48.114;-1.684;2023-05-14T09:01:52;16.50;72.40
52575;DHT22;38468;48.114;-1.684;2023-05-14T09:03:53;16.40;72.90
52575;DHT22;38468;48.114;-1.684;2023-05-14T09:05:54;16.30;72.60
52575;DHT22;38468;48.114;-1.684;2023-05-14T09:07:56;16.20;73.10
52575;DHT22;38468;48.114;-1.684;2023-05-14T09:09:56;16.20;73.10
52575;DHT22;38468;48.114;-1.684;2023-05-14T09:11:58;16.30;73.40
52575;DHT22;38468;48.114;-1.684;2023-05-14T09:14:00;16.20;73.10
52575;DHT22;38468;48.114;-1.684;2023-05-14T09:16:01;16.20;73.20
52575;DHT22;38468;48.114;-1.684;2023-05-14T09:18:05;16.40;73.40
52575;DHT22;38468;48.114;-1.684;2023-05-14T09:20:07;16.40;73.20
52575;DHT22;38468;48.114;-1.684;2023-05-14T09:22:11;16.50;72.90
52575;DHT22;38468;48.114;-1.684;2023-05-14T09:24:22;16.70;72.50
52575;DHT22;38468;48.114;-1.684;2023-05-14T09:26:24;16.70;72.60
52575;DHT22;38468;48.114;-1.684;2023-05-14T09:28:27;16.60;71.80
52575;DHT22;38468;48.114;-1.684;2023-05-14T09:30:30;16.50;71.50
52575;DHT22;38468;48.114;-1.684;2023-05-14T09:32:41;16.50;71.60
52575;DHT22;38468;48.114;-1.684;2023-05-14T09:34:45;16.50;71.40
52575;DHT22;38468;48.114;-1.684;2023-05-14T09:36:46;16.50;71.40
52575;DHT22;38468;48.114;-1.684;2023-05-14T09:38:46;16.60;71.60
52575;DHT22;38468;48.114;-1.684;2023-05-14T09:40:47;16.60;71.00
52575;DHT22;38468;48.114;-1.684;2023-05-14T09:42:48;16.80;71.10
52575;DHT22;38468;48.114;-1.684;2023-05-14T09:44:49;16.80;71.10
52575;DHT22;38468;48.114;-1.684;2023-05-14T09:46:53;16.90;71.20
52575;DHT22;38468;48.114;-1.684;2023-05-14T09:48:54;16.90;70.90
52575;DHT22;38468;48.114;-1.684;2023-05-14T09:50:56;16.90;70.30
52575;DHT22;38468;48.114;-1.684;2023-05-14T09:52:58;17.00;70.60
52575;DHT22;38468;48.114;-1.684;2023-05-14T09:55:00;17.10;70.20
52575;DHT22;38468;48.114;-1.684;2023-05-14T09:57:00;17.10;70.30
52575;DHT22;38468;48.114;-1.684;2023-05-14T09:59:02;17.20;70.00
52575;DHT22;38468;48.114;-1.684;2023-05-14T10:01:03;17.40;70.10
52575;DHT22;38468;48.114;-1.684;2023-05-14T10:03:06;17.40;69.80
52575;DHT22;38468;48.114;-1.684;2023-05-14T10:05:07;17.50;69.40
52575;DHT22;38468;48.114;-1.684;2023-05-14T10:07:09;17.50;68.40
52575;DHT22;38468;48.114;-1.684;2023-05-14T10:09:12;17.60;68.30
52575;DHT22;38468;48.114;-1.684;2023-05-14T10:11:15;17.70;68.60
52575;DHT22;38468;48.114;-1.684;2023-05-14T10:13:23;17.80;68.30
52575;DHT22;38468;48.114;-1.684;2023-05-14T10:15:32;17.90;68.80
52575;DHT22;38468;48.114;-1.684;2023-05-14T10:17:35;17.90;68.40
52575;DHT22;38468;48.114;-1.684;2023-05-14T10:19:38;18.10;68.50
52575;DHT22;38468;48.114;-1.684;2023-05-14T10:21:40;18.10;67.90
52575;DHT22;38468;48.114;-1.684;2023-05-14T10:23:44;18.20;68.00
52575;DHT22;38468;48.114;-1.684;2023-05-14T10:25:46;18.20;67.40
52575;DHT22;38468;48.114;-1.684;2023-05-14T10:27:47;18.20;67.10
52575;DHT22;38468;48.114;-1.684;2023-05-14T10:29:52;18.10;67.00
52575;DHT22;38468;48.114;-1.684;2023-05-14T10:31:56;18.20;67.20
52575;DHT22;38468;48.114;-1.684;2023-05-14T10:33:56;18.20;66.90
52575;DHT22;38468;48.114;-1.684;2023-05-14T10:36:03;18.40;66.90
52575;DHT22;38468;48.114;-1.684;2023-05-14T10:38:08;18.50;66.90
52575;DHT22;38468;48.114;-1.684;2023-05-14T10:40:08;18.50;66.70
52575;DHT22;38468;48.114;-1.684;2023-05-14T10:42:20;18.70;66.80
52575;DHT22;38468;48.114;-1.684;2023-05-14T10:44:21;18.80;66.20
52575;DHT22;38468;48.114;-1.684;2023-05-14T10:46:34;18.70;65.70
52575;DHT22;38468;48.114;-1.684;2023-05-14T10:48:36;18.70;66.10
52575;DHT22;38468;48.114;-1.684;2023-05-14T10:50:38;18.60;65.90
52575;DHT22;38468;48.114;-1.684;2023-05-14T10:52:45;18.70;65.80
52575;DHT22;38468;48.114;-1.684;2023-05-14T10:54:57;18.80;65.50
52575;DHT22;38468;48.114;-1.684;2023-05-14T10:56:58;19.00;66.30
52575;DHT22;38468;48.114;-1.684;2023-05-14T10:58:59;19.00;65.30
52575;DHT22;38468;48.114;-1.684;2023-05-14T11:00:59;19.10;65.40
52575;DHT22;38468;48.114;-1.684;2023-05-14T11:03:04;19.20;65.60
52575;DHT22;38468;48.114;-1.684;2023-05-14T11:07:11;19.20;65.50
52575;DHT22;38468;48.114;-1.684;2023-05-14T11:09:14;19.10;65.30
52575;DHT22;38468;48.114;-1.684;2023-05-14T11:11:16;19.00;65.80
52575;DHT22;38468;48.114;-1.684;2023-05-14T11:13:18;19.20;65.60
52575;DHT22;38468;48.114;-1.684;2023-05-14T11:15:20;19.20;64.60
52575;DHT22;38468;48.114;-1.684;2023-05-14T11:17:22;19.20;64.20
52575;DHT22;38468;48.114;-1.684;2023-05-14T11:19:23;19.20;64.50
52575;DHT22;38468;48.114;-1.684;2023-05-14T11:21:23;19.40;64.50
52575;DHT22;38468;48.114;-1.684;2023-05-14T11:23:24;19.40;63.90
52575;DHT22;38468;48.114;-1.684;2023-05-14T11:25:25;19.30;64.10
52575;DHT22;38468;48.114;-1.684;2023-05-14T11:27:26;19.30;65.00
52575;DHT22;38468;48.114;-1.684;2023-05-14T11:29:27;19.30;64.60
52575;DHT22;38468;48.114;-1.684;2023-05-14T11:31:28;19.30;64.80
52575;DHT22;38468;48.114;-1.684;2023-05-14T11:33:29;19.40;64.00
52575;DHT22;38468;48.114;-1.684;2023-05-14T11:35:30;19.40;63.90
52575;DHT22;38468;48.114;-1.684;2023-05-14T11:37:31;19.50;63.40
52575;DHT22;38468;48.114;-1.684;2023-05-14T11:39:32;19.50;63.00
52575;DHT22;38468;48.114;-1.684;2023-05-14T11:41:33;19.50;63.50
52575;DHT22;38468;48.114;-1.684;2023-05-14T11:43:35;19.50;64.00
52575;DHT22;38468;48.114;-1.684;2023-05-14T11:45:36;19.50;64.30
52575;DHT22;38468;48.114;-1.684;2023-05-14T11:47:37;19.60;64.40
52575;DHT22;38468;48.114;-1.684;2023-05-14T11:49:38;19.70;64.50
52575;DHT22;38468;48.114;-1.684;2023-05-14T11:51:38;19.70;63.40
52575;DHT22;38468;48.114;-1.684;2023-05-14T11:53:39;19.50;63.00
52575;DHT22;38468;48.114;-1.684;2023-05-14T11:55:39;19.60;63.70
52575;DHT22;38468;48.114;-1.684;2023-05-14T11:57:41;19.70;63.70
52575;DHT22;38468;48.114;-1.684;2023-05-14T11:59:42;19.80;63.70
52575;DHT22;38468;48.114;-1.684;2023-05-14T12:01:44;19.70;63.50
52575;DHT22;38468;48.114;-1.684;2023-05-14T12:03:46;19.80;63.50
52575;DHT22;38468;48.114;-1.684;2023-05-14T12:06:00;19.90;63.50
52575;DHT22;38468;48.114;-1.684;2023-05-14T12:08:01;19.90;62.90
52575;DHT22;38468;48.114;-1.684;2023-05-14T12:10:02;20.00;62.90
52575;DHT22;38468;48.114;-1.684;2023-05-14T12:12:08;20.00;62.60
52575;DHT22;38468;48.114;-1.684;2023-05-14T12:16:19;20.10;63.20
52575;DHT22;38468;48.114;-1.684;2023-05-14T12:18:21;20.10;62.80
52575;DHT22;38468;48.114;-1.684;2023-05-14T12:20:22;20.20;62.60
52575;DHT22;38468;48.114;-1.684;2023-05-14T12:22:23;20.20;62.10
52575;DHT22;38468;48.114;-1.684;2023-05-14T12:24:24;20.10;61.30
52575;DHT22;38468;48.114;-1.684;2023-05-14T12:26:25;20.30;62.40
52575;DHT22;38468;48.114;-1.684;2023-05-14T12:28:28;20.30;62.20
52575;DHT22;38468;48.114;-1.684;2023-05-14T12:30:36;20.40;62.80
52575;DHT22;38468;48.114;-1.684;2023-05-14T12:32:37;20.40;62.00
52575;DHT22;38468;48.114;-1.684;2023-05-14T12:34:41;20.40;62.00
52575;DHT22;38468;48.114;-1.684;2023-05-14T12:36:42;20.40;61.60
52575;DHT22;38468;48.114;-1.684;2023-05-14T12:38:43;20.50;62.10
52575;DHT22;38468;48.114;-1.684;2023-05-14T12:40:43;20.50;61.70
52575;DHT22;38468;48.114;-1.684;2023-05-14T12:42:44;20.50;61.50
52575;DHT22;38468;48.114;-1.684;2023-05-14T12:44:45;20.50;61.20
52575;DHT22;38468;48.114;-1.684;2023-05-14T12:46:45;20.40;61.20